sensor_id;sensor_type;location;lat;lon;timestamp;P1;durP1;ratioP1;P2;durP2;ratioP2
60292;SDS011;52402;52.670;6.750;2022-08-19T00:01:18;12.80;;;11.43;;
60292;SDS011;52402;52.670;6.750;2022-08-19T00:03:44;13.88;;;12.48;;
60292;SDS011;52402;52.670;6.750;2022-08-19T00:06:10;13.32;;;12.02;;
60292;SDS011;52402;52.670;6.750;2022-08-19T00:08:36;11.25;;;10.25;;
60292;SDS011;52402;52.670;6.750;2022-08-19T00:11:01;12.85;;;11.55;;
60292;SDS011;52402;52.670;6.750;2022-08-19T00:13:27;13.05;;;11.77;;
60292;SDS011;52402;52.670;6.750;2022-08-19T00:15:54;14.05;;;12.82;;
60292;SDS011;52402;52.670;6.750;2022-08-19T00:18:20;13.35;;;12.15;;
60292;SDS011;52402;52.670;6.750;2022-08-19T00:20:46;12.90;;;11.70;;
60292;SDS011;52402;52.670;6.750;2022-08-19T00:23:11;14.35;;;13.02;;
60292;SDS011;52402;52.670;6.750;2022-08-19T00:25:38;16.17;;;13.18;;
60292;SDS011;52402;52.670;6.750;2022-08-19T00:28:04;15.45;;;13.57;;
60292;SDS011;52402;52.670;6.750;2022-08-19T00:30:29;14.57;;;13.25;;
60292;SDS011;52402;52.670;6.750;2022-08-19T00:32:56;13.20;;;12.00;;
60292;SDS011;52402;52.670;6.750;2022-08-19T00:35:22;13.80;;;12.50;;
60292;SDS011;52402;52.670;6.750;2022-08-19T00:37:48;12.77;;;11.68;;
60292;SDS011;52402;52.670;6.750;2022-08-19T00:40:16;14.57;;;13.23;;
60292;SDS011;52402;52.670;6.750;2022-08-19T00:42:43;14.05;;;12.57;;
60292;SDS011;52402;52.670;6.750;2022-08-19T00:45:14;13.18;;;11.98;;
60292;SDS011;52402;52.670;6.750;2022-08-19T00:47:42;13.48;;;12.15;;
60292;SDS011;52402;52.670;6.750;2022-08-19T00:50:09;12.73;;;11.60;;
60292;SDS011;52402;52.670;6.750;2022-08-19T00:52:42;13.68;;;12.38;;
60292;SDS011;52402;52.670;6.750;2022-08-19T00:55:12;14.07;;;12.68;;
60292;SDS011;52402;52.670;6.750;2022-08-19T00:57:42;15.00;;;13.55;;
60292;SDS011;52402;52.670;6.750;2022-08-19T01:00:13;15.02;;;13.57;;
60292;SDS011;52402;52.670;6.750;2022-08-19T01:02:41;13.88;;;12.57;;
60292;SDS011;52402;52.670;6.750;2022-08-19T01:05:09;14.05;;;12.77;;
60292;SDS011;52402;52.670;6.750;2022-08-19T01:07:38;12.75;;;11.45;;
60292;SDS011;52402;52.670;6.750;2022-08-19T01:10:05;14.90;;;13.40;;
60292;SDS011;52402;52.670;6.750;2022-08-19T01:12:36;15.98;;;14.52;;
60292;SDS011;52402;52.670;6.750;2022-08-19T01:15:04;15.45;;;14.00;;
60292;SDS011;52402;52.670;6.750;2022-08-19T01:17:32;16.15;;;14.70;;
60292;SDS011;52402;52.670;6.750;2022-08-19T01:19:58;16.20;;;14.50;;
60292;SDS011;52402;52.670;6.750;2022-08-19T01:22:29;14.00;;;12.80;;
60292;SDS011;52402;52.670;6.750;2022-08-19T01:25:00;15.15;;;13.70;;
60292;SDS011;52402;52.670;6.750;2022-08-19T01:27:26;16.58;;;14.98;;
60292;SDS011;52402;52.670;6.750;2022-08-19T01:30:02;15.55;;;14.15;;
60292;SDS011;52402;52.670;6.750;2022-08-19T01:32:28;15.07;;;13.68;;
60292;SDS011;52402;52.670;6.750;2022-08-19T01:34:55;19.52;;;17.50;;
60292;SDS011;52402;52.670;6.750;2022-08-19T01:37:20;23.70;;;20.25;;
60292;SDS011;52402;52.670;6.750;2022-08-19T01:39:46;19.73;;;17.73;;
60292;SDS011;52402;52.670;6.750;2022-08-19T01:42:12;15.95;;;14.52;;
60292;SDS011;52402;52.670;6.750;2022-08-19T01:44:40;18.48;;;16.67;;
60292;SDS011;52402;52.670;6.750;2022-08-19T01:47:06;17.35;;;15.70;;
60292;SDS011;52402;52.670;6.750;2022-08-19T01:49:34;19.88;;;17.90;;
60292;SDS011;52402;52.670;6.750;2022-08-19T01:52:03;18.73;;;16.98;;
60292;SDS011;52402;52.670;6.750;2022-08-19T01:54:29;20.95;;;18.85;;
60292;SDS011;52402;52.670;6.750;2022-08-19T01:56:57;19.17;;;17.30;;
60292;SDS011;52402;52.670;6.750;2022-08-19T01:59:26;18.20;;;16.52;;
60292;SDS011;52402;52.670;6.750;2022-08-19T02:01:53;17.95;;;16.35;;
60292;SDS011;52402;52.670;6.750;2022-08-19T02:04:19;20.65;;;18.65;;
60292;SDS011;52402;52.670;6.750;2022-08-19T02:06:45;19.80;;;18.00;;
60292;SDS011;52402;52.670;6.750;2022-08-19T02:09:11;18.50;;;16.70;;
60292;SDS011;52402;52.670;6.750;2022-08-19T02:11:37;19.67;;;17.73;;
60292;SDS011;52402;52.670;6.750;2022-08-19T02:14:04;19.98;;;18.00;;
60292;SDS011;52402;52.670;6.750;2022-08-19T02:16:31;16.58;;;15.05;;
60292;SDS011;52402;52.670;6.750;2022-08-19T02:18:57;24.80;;;22.13;;
60292;SDS011;52402;52.670;6.750;2022-08-19T02:21:27;25.03;;;22.43;;
60292;SDS011;52402;52.670;6.750;2022-08-19T02:23:53;19.48;;;17.58;;
60292;SDS011;52402;52.670;6.750;2022-08-19T02:26:20;18.67;;;16.88;;
60292;SDS011;52402;52.670;6.750;2022-08-19T02:28:47;21.42;;;19.45;;
60292;SDS011;52402;52.670;6.750;2022-08-19T02:31:15;20.58;;;18.58;;
60292;SDS011;52402;52.670;6.750;2022-08-19T02:33:43;21.83;;;19.73;;
60292;SDS011;52402;52.670;6.750;2022-08-19T02:36:09;33.15;;;26.63;;
60292;SDS011;52402;52.670;6.750;2022-08-19T02:38:36;20.08;;;18.27;;
60292;SDS011;52402;52.670;6.750;2022-08-19T02:41:03;20.33;;;18.45;;
60292;SDS011;52402;52.670;6.750;2022-08-19T02:43:32;20.42;;;18.52;;
60292;SDS011;52402;52.670;6.750;2022-08-19T02:46:18;23.27;;;20.92;;
60292;SDS011;52402;52.670;6.750;2022-08-19T02:48:48;22.25;;;20.02;;
60292;SDS011;52402;52.670;6.750;2022-08-19T02:51:18;21.23;;;19.23;;
60292;SDS011;52402;52.670;6.750;2022-08-19T02:53:54;20.05;;;17.95;;
60292;SDS011;52402;52.670;6.750;2022-08-19T02:56:21;21.75;;;19.55;;
60292;SDS011;52402;52.670;6.750;2022-08-19T02:58:47;23.30;;;20.98;;
60292;SDS011;52402;52.670;6.750;2022-08-19T03:01:20;30.13;;;25.45;;
60292;SDS011;52402;52.670;6.750;2022-08-19T03:03:49;27.00;;;23.98;;
60292;SDS011;52402;52.670;6.750;2022-08-19T03:06:16;22.83;;;20.52;;
60292;SDS011;52402;52.670;6.750;2022-08-19T03:08:43;22.77;;;20.67;;
60292;SDS011;52402;52.670;6.750;2022-08-19T03:11:13;20.40;;;18.50;;
60292;SDS011;52402;52.670;6.750;2022-08-19T03:13:41;23.27;;;21.08;;
60292;SDS011;52402;52.670;6.750;2022-08-19T03:16:08;21.15;;;19.25;;
60292;SDS011;52402;52.670;6.750;2022-08-19T03:18:34;19.95;;;18.05;;
60292;SDS011;52402;52.670;6.750;2022-08-19T03:21:00;21.02;;;19.02;;
60292;SDS011;52402;52.670;6.750;2022-08-19T03:23:26;22.17;;;20.05;;
60292;SDS011;52402;52.670;6.750;2022-08-19T03:25:52;22.42;;;20.20;;
60292;SDS011;52402;52.670;6.750;2022-08-19T03:28:19;20.25;;;18.25;;
60292;SDS011;52402;52.670;6.750;2022-08-19T03:31:04;22.88;;;20.58;;
60292;SDS011;52402;52.670;6.750;2022-08-19T03:33:34;20.80;;;18.80;;
60292;SDS011;52402;52.670;6.750;2022-08-19T03:36:19;21.02;;;18.92;;
60292;SDS011;52402;52.670;6.750;2022-08-19T03:38:50;23.13;;;20.83;;
60292;SDS011;52402;52.670;6.750;2022-08-19T03:41:18;22.30;;;20.10;;
60292;SDS011;52402;52.670;6.750;2022-08-19T03:43:46;23.00;;;20.87;;
60292;SDS011;52402;52.670;6.750;2022-08-19T03:46:16;22.33;;;20.23;;
60292;SDS011;52402;52.670;6.750;2022-08-19T03:48:45;23.27;;;21.10;;
60292;SDS011;52402;52.670;6.750;2022-08-19T03:51:16;25.05;;;22.45;;
60292;SDS011;52402;52.670;6.750;2022-08-19T03:53:44;23.52;;;21.27;;
60292;SDS011;52402;52.670;6.750;2022-08-19T03:56:12;21.90;;;19.70;;
60292;SDS011;52402;52.670;6.750;2022-08-19T03:58:38;20.55;;;18.65;;
60292;SDS011;52402;52.670;6.750;2022-08-19T04:01:09;21.35;;;19.25;;
60292;SDS011;52402;52.670;6.750;2022-08-19T04:03:36;22.42;;;20.10;;
60292;SDS011;52402;52.670;6.750;2022-08-19T04:06:09;20.98;;;19.02;;
60292;SDS011;52402;52.670;6.750;2022-08-19T04:08:39;20.92;;;18.85;;
60292;SDS011;52402;52.670;6.750;2022-08-19T04:11:07;29.25;;;24.10;;
60292;SDS011;52402;52.670;6.750;2022-08-19T04:13:34;33.80;;;25.13;;
60292;SDS011;52402;52.670;6.750;2022-08-19T04:16:00;28.15;;;24.35;;
60292;SDS011;52402;52.670;6.750;2022-08-19T04:18:25;21.60;;;19.42;;
60292;SDS011;52402;52.670;6.750;2022-08-19T04:20:51;23.92;;;21.55;;
60292;SDS011;52402;52.670;6.750;2022-08-19T04:23:17;23.92;;;21.63;;
60292;SDS011;52402;52.670;6.750;2022-08-19T04:25:43;24.75;;;22.10;;
60292;SDS011;52402;52.670;6.750;2022-08-19T04:28:10;23.58;;;21.20;;
60292;SDS011;52402;52.670;6.750;2022-08-19T04:30:45;25.60;;;22.95;;
60292;SDS011;52402;52.670;6.750;2022-08-19T04:33:13;26.30;;;23.08;;
60292;SDS011;52402;52.670;6.750;2022-08-19T04:35:41;20.60;;;18.60;;
60292;SDS011;52402;52.670;6.750;2022-08-19T04:38:09;21.13;;;18.92;;
60292;SDS011;52402;52.670;6.750;2022-08-19T04:40:39;20.42;;;18.42;;
60292;SDS011;52402;52.670;6.750;2022-08-19T04:43:28;23.00;;;20.60;;
60292;SDS011;52402;52.670;6.750;2022-08-19T04:45:54;22.38;;;20.17;;
60292;SDS011;52402;52.670;6.750;2022-08-19T04:48:20;20.13;;;18.20;;
60292;SDS011;52402;52.670;6.750;2022-08-19T04:50:51;34.97;;;26.45;;
60292;SDS011;52402;52.670;6.750;2022-08-19T04:53:31;22.42;;;20.05;;
60292;SDS011;52402;52.670;6.750;2022-08-19T04:55:59;25.33;;;22.60;;
60292;SDS011;52402;52.670;6.750;2022-08-19T04:58:28;28.75;;;23.40;;
60292;SDS011;52402;52.670;6.750;2022-08-19T05:00:54;24.23;;;21.45;;
60292;SDS011;52402;52.670;6.750;2022-08-19T05:03:20;20.48;;;18.38;;
60292;SDS011;52402;52.670;6.750;2022-08-19T05:05:46;19.48;;;17.48;;
60292;SDS011;52402;52.670;6.750;2022-08-19T05:08:15;18.67;;;16.77;;
60292;SDS011;52402;52.670;6.750;2022-08-19T05:10:44;17.35;;;15.65;;
60292;SDS011;52402;52.670;6.750;2022-08-19T05:13:15;19.40;;;17.40;;
60292;SDS011;52402;52.670;6.750;2022-08-19T05:15:44;20.30;;;18.20;;
60292;SDS011;52402;52.670;6.750;2022-08-19T05:18:17;21.35;;;19.05;;
60292;SDS011;52402;52.670;6.750;2022-08-19T05:21:05;21.10;;;18.90;;
60292;SDS011;52402;52.670;6.750;2022-08-19T05:23:53;19.33;;;17.52;;
60292;SDS011;52402;52.670;6.750;2022-08-19T05:26:18;20.50;;;18.02;;
60292;SDS011;52402;52.670;6.750;2022-08-19T05:28:44;27.88;;;21.80;;
60292;SDS011;52402;52.670;6.750;2022-08-19T05:31:10;24.38;;;21.70;;
60292;SDS011;52402;52.670;6.750;2022-08-19T05:33:35;19.85;;;17.85;;
60292;SDS011;52402;52.670;6.750;2022-08-19T05:36:02;21.27;;;19.05;;
60292;SDS011;52402;52.670;6.750;2022-08-19T05:38:28;20.58;;;18.38;;
60292;SDS011;52402;52.670;6.750;2022-08-19T05:40:55;17.58;;;15.93;;
60292;SDS011;52402;52.670;6.750;2022-08-19T05:43:20;18.60;;;16.70;;
60292;SDS011;52402;52.670;6.750;2022-08-19T05:45:46;19.10;;;17.20;;
60292;SDS011;52402;52.670;6.750;2022-08-19T05:48:12;17.25;;;15.55;;
60292;SDS011;52402;52.670;6.750;2022-08-19T05:50:39;18.30;;;16.60;;
60292;SDS011;52402;52.670;6.750;2022-08-19T05:53:05;20.05;;;17.98;;
60292;SDS011;52402;52.670;6.750;2022-08-19T05:55:33;19.15;;;17.27;;
60292;SDS011;52402;52.670;6.750;2022-08-19T05:58:00;26.98;;;23.10;;
60292;SDS011;52402;52.670;6.750;2022-08-19T06:00:26;20.08;;;18.00;;
60292;SDS011;52402;52.670;6.750;2022-08-19T06:02:52;19.98;;;17.98;;
60292;SDS011;52402;52.670;6.750;2022-08-19T06:05:21;21.67;;;19.55;;
60292;SDS011;52402;52.670;6.750;2022-08-19T06:07:47;24.58;;;22.00;;
60292;SDS011;52402;52.670;6.750;2022-08-19T06:10:12;30.38;;;27.02;;
60292;SDS011;52402;52.670;6.750;2022-08-19T06:12:38;28.63;;;25.60;;
60292;SDS011;52402;52.670;6.750;2022-08-19T06:15:06;29.50;;;26.27;;
60292;SDS011;52402;52.670;6.750;2022-08-19T06:17:34;28.98;;;25.92;;
60292;SDS011;52402;52.670;6.750;2022-08-19T06:20:00;32.75;;;29.25;;
60292;SDS011;52402;52.670;6.750;2022-08-19T06:22:28;31.65;;;28.35;;
60292;SDS011;52402;52.670;6.750;2022-08-19T06:24:54;36.88;;;31.67;;
60292;SDS011;52402;52.670;6.750;2022-08-19T06:27:20;37.00;;;31.73;;
60292;SDS011;52402;52.670;6.750;2022-08-19T06:29:46;32.65;;;28.70;;
60292;SDS011;52402;52.670;6.750;2022-08-19T06:32:13;34.70;;;28.85;;
60292;SDS011;52402;52.670;6.750;2022-08-19T06:34:41;29.73;;;26.52;;
60292;SDS011;52402;52.670;6.750;2022-08-19T06:37:07;28.52;;;25.65;;
60292;SDS011;52402;52.670;6.750;2022-08-19T06:39:37;30.10;;;26.75;;
60292;SDS011;52402;52.670;6.750;2022-08-19T06:42:04;33.65;;;29.15;;
60292;SDS011;52402;52.670;6.750;2022-08-19T06:44:34;34.67;;;30.33;;
60292;SDS011;52402;52.670;6.750;2022-08-19T06:47:04;32.63;;;28.80;;
60292;SDS011;52402;52.670;6.750;2022-08-19T06:49:32;29.90;;;26.80;;
60292;SDS011;52402;52.670;6.750;2022-08-19T06:51:58;34.28;;;29.60;;
60292;SDS011;52402;52.670;6.750;2022-08-19T06:54:24;32.30;;;28.88;;
60292;SDS011;52402;52.670;6.750;2022-08-19T06:56:52;33.88;;;29.88;;
60292;SDS011;52402;52.670;6.750;2022-08-19T06:59:18;29.77;;;26.52;;
60292;SDS011;52402;52.670;6.750;2022-08-19T07:01:50;31.25;;;27.42;;
60292;SDS011;52402;52.670;6.750;2022-08-19T07:04:19;31.08;;;27.77;;
60292;SDS011;52402;52.670;6.750;2022-08-19T07:06:50;28.65;;;25.77;;
60292;SDS011;52402;52.670;6.750;2022-08-19T07:09:27;28.80;;;25.70;;
60292;SDS011;52402;52.670;6.750;2022-08-19T07:11:54;28.65;;;25.75;;
60292;SDS011;52402;52.670;6.750;2022-08-19T07:14:21;27.17;;;24.38;;
60292;SDS011;52402;52.670;6.750;2022-08-19T07:16:50;31.38;;;28.15;;
60292;SDS011;52402;52.670;6.750;2022-08-19T07:19:18;31.92;;;27.25;;
60292;SDS011;52402;52.670;6.750;2022-08-19T07:21:46;29.67;;;26.60;;
60292;SDS011;52402;52.670;6.750;2022-08-19T07:24:13;28.90;;;26.10;;
60292;SDS011;52402;52.670;6.750;2022-08-19T07:26:40;33.90;;;30.35;;
60292;SDS011;52402;52.670;6.750;2022-08-19T07:29:07;33.53;;;30.08;;
60292;SDS011;52402;52.670;6.750;2022-08-19T07:31:33;31.80;;;28.52;;
60292;SDS011;52402;52.670;6.750;2022-08-19T07:34:01;29.52;;;26.63;;
60292;SDS011;52402;52.670;6.750;2022-08-19T07:36:32;30.10;;;27.20;;
60292;SDS011;52402;52.670;6.750;2022-08-19T07:39:01;29.35;;;26.52;;
60292;SDS011;52402;52.670;6.750;2022-08-19T07:43:56;28.88;;;25.83;;
60292;SDS011;52402;52.670;6.750;2022-08-19T07:46:24;28.40;;;25.55;;
60292;SDS011;52402;52.670;6.750;2022-08-19T07:48:49;29.40;;;26.52;;
60292;SDS011;52402;52.670;6.750;2022-08-19T07:51:18;28.35;;;25.55;;
60292;SDS011;52402;52.670;6.750;2022-08-19T07:53:45;27.23;;;24.65;;
60292;SDS011;52402;52.670;6.750;2022-08-19T07:56:13;27.92;;;25.23;;
60292;SDS011;52402;52.670;6.750;2022-08-19T07:58:40;27.55;;;24.88;;
60292;SDS011;52402;52.670;6.750;2022-08-19T08:01:07;27.27;;;24.70;;
60292;SDS011;52402;52.670;6.750;2022-08-19T08:03:36;24.63;;;22.42;;
60292;SDS011;52402;52.670;6.750;2022-08-19T08:06:20;24.98;;;22.52;;
60292;SDS011;52402;52.670;6.750;2022-08-19T08:09:05;26.23;;;23.50;;
60292;SDS011;52402;52.670;6.750;2022-08-19T08:11:38;24.38;;;21.90;;
60292;SDS011;52402;52.670;6.750;2022-08-19T08:14:06;24.30;;;22.10;;
60292;SDS011;52402;52.670;6.750;2022-08-19T08:16:34;24.27;;;21.80;;
60292;SDS011;52402;52.670;6.750;2022-08-19T08:21:30;21.73;;;19.73;;
60292;SDS011;52402;52.670;6.750;2022-08-19T08:23:55;22.50;;;20.40;;
60292;SDS011;52402;52.670;6.750;2022-08-19T08:26:21;22.20;;;20.13;;
60292;SDS011;52402;52.670;6.750;2022-08-19T08:28:47;21.20;;;19.00;;
60292;SDS011;52402;52.670;6.750;2022-08-19T08:31:13;20.75;;;18.70;;
60292;SDS011;52402;52.670;6.750;2022-08-19T08:33:39;19.75;;;17.85;;
60292;SDS011;52402;52.670;6.750;2022-08-19T08:36:07;19.75;;;17.83;;
60292;SDS011;52402;52.670;6.750;2022-08-19T08:38:34;21.13;;;19.17;;
60292;SDS011;52402;52.670;6.750;2022-08-19T08:41:03;21.42;;;19.48;;
60292;SDS011;52402;52.670;6.750;2022-08-19T08:43:38;23.23;;;20.92;;
60292;SDS011;52402;52.670;6.750;2022-08-19T08:46:54;22.17;;;20.17;;
60292;SDS011;52402;52.670;6.750;2022-08-19T08:49:20;21.67;;;19.42;;
60292;SDS011;52402;52.670;6.750;2022-08-19T08:52:10;21.48;;;19.27;;
60292;SDS011;52402;52.670;6.750;2022-08-19T08:55:00;21.45;;;19.38;;
60292;SDS011;52402;52.670;6.750;2022-08-19T08:57:36;20.58;;;18.60;;
60292;SDS011;52402;52.670;6.750;2022-08-19T09:00:42;21.67;;;19.67;;
60292;SDS011;52402;52.670;6.750;2022-08-19T09:03:10;21.55;;;19.55;;
60292;SDS011;52402;52.670;6.750;2022-08-19T09:08:15;23.75;;;21.55;;
60292;SDS011;52402;52.670;6.750;2022-08-19T09:10:49;23.98;;;21.60;;
60292;SDS011;52402;52.670;6.750;2022-08-19T09:13:26;23.38;;;21.20;;
60292;SDS011;52402;52.670;6.750;2022-08-19T09:16:20;24.42;;;22.15;;
60292;SDS011;52402;52.670;6.750;2022-08-19T09:18:52;24.00;;;21.70;;
60292;SDS011;52402;52.670;6.750;2022-08-19T09:21:22;25.00;;;22.70;;
60292;SDS011;52402;52.670;6.750;2022-08-19T09:23:48;24.30;;;22.10;;
60292;SDS011;52402;52.670;6.750;2022-08-19T09:26:16;22.13;;;20.13;;
60292;SDS011;52402;52.670;6.750;2022-08-19T09:28:43;23.67;;;21.48;;
60292;SDS011;52402;52.670;6.750;2022-08-19T09:31:11;24.45;;;22.15;;
60292;SDS011;52402;52.670;6.750;2022-08-19T09:33:37;24.02;;;21.67;;
60292;SDS011;52402;52.670;6.750;2022-08-19T09:36:07;24.15;;;22.05;;
60292;SDS011;52402;52.670;6.750;2022-08-19T09:38:34;24.15;;;22.05;;
60292;SDS011;52402;52.670;6.750;2022-08-19T09:41:02;23.65;;;21.55;;
60292;SDS011;52402;52.670;6.750;2022-08-19T09:43:32;24.42;;;22.23;;
60292;SDS011;52402;52.670;6.750;2022-08-19T09:46:02;22.38;;;20.40;;
60292;SDS011;52402;52.670;6.750;2022-08-19T09:48:30;23.58;;;21.40;;
60292;SDS011;52402;52.670;6.750;2022-08-19T09:51:07;21.85;;;19.85;;
60292;SDS011;52402;52.670;6.750;2022-08-19T09:53:40;20.33;;;18.52;;
60292;SDS011;52402;52.670;6.750;2022-08-19T09:56:07;19.70;;;18.00;;
60292;SDS011;52402;52.670;6.750;2022-08-19T09:58:33;18.58;;;16.77;;
60292;SDS011;52402;52.670;6.750;2022-08-19T10:01:00;21.00;;;19.02;;
60292;SDS011;52402;52.670;6.750;2022-08-19T10:03:27;20.02;;;18.17;;
60292;SDS011;52402;52.670;6.750;2022-08-19T10:05:54;17.42;;;15.82;;
60292;SDS011;52402;52.670;6.750;2022-08-19T10:08:23;16.70;;;15.20;;
60292;SDS011;52402;52.670;6.750;2022-08-19T10:10:51;20.38;;;18.40;;
60292;SDS011;52402;52.670;6.750;2022-08-19T10:13:18;18.77;;;17.17;;
60292;SDS011;52402;52.670;6.750;2022-08-19T10:15:50;20.95;;;19.13;;
60292;SDS011;52402;52.670;6.750;2022-08-19T10:18:21;18.52;;;16.88;;
60292;SDS011;52402;52.670;6.750;2022-08-19T10:20:48;15.68;;;14.18;;
60292;SDS011;52402;52.670;6.750;2022-08-19T10:23:15;14.30;;;12.93;;
60292;SDS011;52402;52.670;6.750;2022-08-19T10:25:41;17.65;;;16.05;;
60292;SDS011;52402;52.670;6.750;2022-08-19T10:28:08;16.48;;;14.85;;
60292;SDS011;52402;52.670;6.750;2022-08-19T10:30:37;17.52;;;15.90;;
60292;SDS011;52402;52.670;6.750;2022-08-19T10:33:06;14.95;;;13.45;;
60292;SDS011;52402;52.670;6.750;2022-08-19T10:35:32;14.55;;;13.25;;
60292;SDS011;52402;52.670;6.750;2022-08-19T10:37:58;14.57;;;13.30;;
60292;SDS011;52402;52.670;6.750;2022-08-19T10:40:25;14.65;;;13.25;;
60292;SDS011;52402;52.670;6.750;2022-08-19T10:42:52;15.07;;;13.65;;
60292;SDS011;52402;52.670;6.750;2022-08-19T10:45:18;12.90;;;11.70;;
60292;SDS011;52402;52.670;6.750;2022-08-19T10:47:47;13.48;;;12.15;;
60292;SDS011;52402;52.670;6.750;2022-08-19T10:50:12;14.50;;;13.05;;
60292;SDS011;52402;52.670;6.750;2022-08-19T10:52:56;15.05;;;13.55;;
60292;SDS011;52402;52.670;6.750;2022-08-19T10:55:22;13.65;;;12.25;;
60292;SDS011;52402;52.670;6.750;2022-08-19T10:58:14;13.93;;;12.70;;
60292;SDS011;52402;52.670;6.750;2022-08-19T11:00:50;15.45;;;14.05;;
60292;SDS011;52402;52.670;6.750;2022-08-19T11:03:31;14.50;;;13.05;;
60292;SDS011;52402;52.670;6.750;2022-08-19T11:06:15;12.32;;;10.98;;
60292;SDS011;52402;52.670;6.750;2022-08-19T11:08:41;11.70;;;10.60;;
60292;SDS011;52402;52.670;6.750;2022-08-19T11:11:10;12.73;;;11.63;;
60292;SDS011;52402;52.670;6.750;2022-08-19T11:13:38;13.30;;;12.10;;
60292;SDS011;52402;52.670;6.750;2022-08-19T11:18:33;11.85;;;10.77;;
60292;SDS011;52402;52.670;6.750;2022-08-19T11:21:08;13.13;;;10.93;;
60292;SDS011;52402;52.670;6.750;2022-08-19T11:23:35;11.77;;;10.65;;
60292;SDS011;52402;52.670;6.750;2022-08-19T11:26:01;12.88;;;11.68;;
60292;SDS011;52402;52.670;6.750;2022-08-19T11:28:27;13.52;;;12.23;;
60292;SDS011;52402;52.670;6.750;2022-08-19T11:30:53;15.70;;;14.30;;
60292;SDS011;52402;52.670;6.750;2022-08-19T11:33:19;14.45;;;13.13;;
60292;SDS011;52402;52.670;6.750;2022-08-19T11:35:44;11.80;;;10.77;;
60292;SDS011;52402;52.670;6.750;2022-08-19T11:38:10;11.07;;;9.98;;
60292;SDS011;52402;52.670;6.750;2022-08-19T11:40:36;12.30;;;10.45;;
60292;SDS011;52402;52.670;6.750;2022-08-19T11:43:02;11.02;;;9.68;;
60292;SDS011;52402;52.670;6.750;2022-08-19T11:45:28;9.93;;;8.93;;
60292;SDS011;52402;52.670;6.750;2022-08-19T11:47:55;10.73;;;9.63;;
60292;SDS011;52402;52.670;6.750;2022-08-19T11:50:20;11.27;;;10.23;;
60292;SDS011;52402;52.670;6.750;2022-08-19T11:52:48;10.70;;;9.70;;
60292;SDS011;52402;52.670;6.750;2022-08-19T11:55:14;11.18;;;9.88;;
60292;SDS011;52402;52.670;6.750;2022-08-19T11:57:40;12.73;;;11.48;;
60292;SDS011;52402;52.670;6.750;2022-08-19T12:00:07;14.35;;;12.27;;
60292;SDS011;52402;52.670;6.750;2022-08-19T12:02:35;10.95;;;9.95;;
60292;SDS011;52402;52.670;6.750;2022-08-19T12:05:00;11.70;;;10.63;;
60292;SDS011;52402;52.670;6.750;2022-08-19T12:07:29;11.55;;;10.02;;
60292;SDS011;52402;52.670;6.750;2022-08-19T12:09:58;10.10;;;9.13;;
60292;SDS011;52402;52.670;6.750;2022-08-19T12:12:24;11.50;;;9.80;;
60292;SDS011;52402;52.670;6.750;2022-08-19T12:14:50;12.25;;;11.05;;
60292;SDS011;52402;52.670;6.750;2022-08-19T12:17:21;11.13;;;9.93;;
60292;SDS011;52402;52.670;6.750;2022-08-19T12:19:48;10.52;;;9.43;;
60292;SDS011;52402;52.670;6.750;2022-08-19T12:22:13;12.68;;;11.43;;
60292;SDS011;52402;52.670;6.750;2022-08-19T12:24:39;10.60;;;9.50;;
60292;SDS011;52402;52.670;6.750;2022-08-19T12:27:04;10.23;;;9.27;;
60292;SDS011;52402;52.670;6.750;2022-08-19T12:29:30;10.52;;;9.43;;
60292;SDS011;52402;52.670;6.750;2022-08-19T12:31:58;13.25;;;11.98;;
60292;SDS011;52402;52.670;6.750;2022-08-19T12:34:30;11.70;;;10.55;;
60292;SDS011;52402;52.670;6.750;2022-08-19T12:36:57;13.82;;;12.43;;
60292;SDS011;52402;52.670;6.750;2022-08-19T12:39:24;13.55;;;12.25;;
60292;SDS011;52402;52.670;6.750;2022-08-19T12:41:50;13.13;;;11.73;;
60292;SDS011;52402;52.670;6.750;2022-08-19T12:44:19;13.07;;;11.93;;
60292;SDS011;52402;52.670;6.750;2022-08-19T12:46:45;15.98;;;14.52;;
60292;SDS011;52402;52.670;6.750;2022-08-19T12:49:11;14.05;;;12.82;;
60292;SDS011;52402;52.670;6.750;2022-08-19T12:51:37;16.10;;;14.55;;
60292;SDS011;52402;52.670;6.750;2022-08-19T12:54:02;15.48;;;13.88;;
60292;SDS011;52402;52.670;6.750;2022-08-19T12:56:29;16.23;;;14.77;;
60292;SDS011;52402;52.670;6.750;2022-08-19T12:58:56;15.85;;;14.32;;
60292;SDS011;52402;52.670;6.750;2022-08-19T13:01:21;16.33;;;14.93;;
60292;SDS011;52402;52.670;6.750;2022-08-19T13:03:47;13.15;;;11.93;;
60292;SDS011;52402;52.670;6.750;2022-08-19T13:06:13;16.17;;;14.68;;
60292;SDS011;52402;52.670;6.750;2022-08-19T13:08:39;18.90;;;17.20;;
60292;SDS011;52402;52.670;6.750;2022-08-19T13:11:10;16.05;;;14.35;;
60292;SDS011;52402;52.670;6.750;2022-08-19T13:13:38;18.65;;;17.05;;
60292;SDS011;52402;52.670;6.750;2022-08-19T13:16:06;19.90;;;18.20;;
60292;SDS011;52402;52.670;6.750;2022-08-19T13:18:34;20.35;;;18.45;;
60292;SDS011;52402;52.670;6.750;2022-08-19T13:21:03;19.75;;;17.98;;
60292;SDS011;52402;52.670;6.750;2022-08-19T13:23:30;18.30;;;16.60;;
60292;SDS011;52402;52.670;6.750;2022-08-19T13:25:57;17.92;;;16.27;;
60292;SDS011;52402;52.670;6.750;2022-08-19T13:28:28;20.23;;;18.52;;
60292;SDS011;52402;52.670;6.750;2022-08-19T13:31:17;15.77;;;14.27;;
60292;SDS011;52402;52.670;6.750;2022-08-19T13:36:29;16.23;;;14.57;;
60292;SDS011;52402;52.670;6.750;2022-08-19T13:38:55;15.00;;;13.70;;
60292;SDS011;52402;52.670;6.750;2022-08-19T13:41:21;14.35;;;13.07;;
60292;SDS011;52402;52.670;6.750;2022-08-19T13:43:47;13.85;;;12.65;;
60292;SDS011;52402;52.670;6.750;2022-08-19T13:46:13;15.63;;;14.23;;
60292;SDS011;52402;52.670;6.750;2022-08-19T13:48:39;15.00;;;13.60;;
60292;SDS011;52402;52.670;6.750;2022-08-19T13:51:06;15.95;;;14.35;;
60292;SDS011;52402;52.670;6.750;2022-08-19T13:53:35;16.25;;;14.75;;
60292;SDS011;52402;52.670;6.750;2022-08-19T13:56:06;13.82;;;12.52;;
60292;SDS011;52402;52.670;6.750;2022-08-19T13:58:33;11.85;;;10.52;;
60292;SDS011;52402;52.670;6.750;2022-08-19T14:00:59;12.00;;;10.80;;
60292;SDS011;52402;52.670;6.750;2022-08-19T14:03:26;11.10;;;9.93;;
60292;SDS011;52402;52.670;6.750;2022-08-19T14:05:52;11.70;;;9.93;;
60292;SDS011;52402;52.670;6.750;2022-08-19T14:08:18;11.07;;;9.35;;
60292;SDS011;52402;52.670;6.750;2022-08-19T14:10:44;8.68;;;7.78;;
60292;SDS011;52402;52.670;6.750;2022-08-19T14:13:12;7.55;;;6.10;;
60292;SDS011;52402;52.670;6.750;2022-08-19T14:15:39;7.10;;;5.70;;
60292;SDS011;52402;52.670;6.750;2022-08-19T14:18:05;7.15;;;5.72;;
60292;SDS011;52402;52.670;6.750;2022-08-19T14:20:33;9.25;;;7.38;;
60292;SDS011;52402;52.670;6.750;2022-08-19T14:23:02;9.07;;;7.15;;
60292;SDS011;52402;52.670;6.750;2022-08-19T14:25:31;11.10;;;8.30;;
60292;SDS011;52402;52.670;6.750;2022-08-19T14:27:57;8.65;;;7.75;;
60292;SDS011;52402;52.670;6.750;2022-08-19T14:30:28;8.43;;;7.53;;
60292;SDS011;52402;52.670;6.750;2022-08-19T14:32:57;7.28;;;6.57;;
60292;SDS011;52402;52.670;6.750;2022-08-19T14:35:24;7.03;;;5.80;;
60292;SDS011;52402;52.670;6.750;2022-08-19T14:37:52;7.15;;;5.80;;
60292;SDS011;52402;52.670;6.750;2022-08-19T14:40:20;8.77;;;5.95;;
60292;SDS011;52402;52.670;6.750;2022-08-19T14:42:50;6.72;;;5.50;;
60292;SDS011;52402;52.670;6.750;2022-08-19T14:45:17;6.55;;;5.38;;